sensor_id;sensor_type;location;lat;lon;timestamp;P1;durP1;ratioP1;P2;durP2;ratioP2
32451;SDS011;45528;52.102;5.242;2023-03-01T00:01:09;14.7;;;10.3;;
32451;SDS011;45528;52.102;5.242;2023-03-01T00:02:49;14.2;;;10.5;;
32451;SDS011;45528;52.102;5.242;2023-03-01T00:06:03;16.4;;;10.9;;
32451;SDS011;45528;52.102;5.242;2023-03-01T00:07:40;16.4;;;10.9;;
32451;SDS011;45528;52.102;5.242;2023-03-01T00:09:16;16.11;;;10.3;;
32451;SDS011;45528;52.102;5.242;2023-03-01T00:12:39;14.7;;;10.1;;
32451;SDS011;45528;52.102;5.242;2023-03-01T00:14:15;15.8;;;10.6;;
32451;SDS011;45528;52.102;5.242;2023-03-01T00:15:51;15.0;;;10.9;;
32451;SDS011;45528;52.102;5.242;2023-03-01T00:17:28;14.4;;;10.1;;
32451;SDS011;45528;52.102;5.242;2023-03-01T00:20:41;14.4;;;10.9;;
32451;SDS011;45528;52.102;5.242;2023-03-01T00:22:17;15.8;;;10.9;;
32451;SDS011;45528;52.102;5.242;2023-03-01T00:23:53;16.4;;;12.3;;
32451;SDS011;45528;52.102;5.242;2023-03-01T00:27:06;17.61;;;12.0;;
32451;SDS011;45528;52.102;5.242;2023-03-01T00:28:43;19.11;;;12.3;;
32451;SDS011;45528;52.102;5.242;2023-03-01T00:30:20;16.8;;;12.0;;
32451;SDS011;45528;52.102;5.242;2023-03-01T00:33:32;16.8;;;12.0;;
32451;SDS011;45528;52.102;5.242;2023-03-01T00:35:09;14.7;;;11.5;;
32451;SDS011;45528;52.102;5.242;2023-03-01T00:36:45;19.3;;;12.6;;
32451;SDS011;45528;52.102;5.242;2023-03-01T00:38:22;16.2;;;12.0;;
32451;SDS011;45528;52.102;5.242;2023-03-01T00:41:34;16.61;;;12.2;;
32451;SDS011;45528;52.102;5.242;2023-03-01T00:43:10;18.3;;;12.8;;
32451;SDS011;45528;52.102;5.242;2023-03-01T00:44:46;17.7;;;11.8;;
32451;SDS011;45528;52.102;5.242;2023-03-01T00:48:02;16.61;;;12.7;;
32451;SDS011;45528;52.102;5.242;2023-03-01T00:49:38;14.4;;;9.81;;
32451;SDS011;45528;52.102;5.242;2023-03-01T00:51:14;14.5;;;10.0;;
32451;SDS011;45528;52.102;5.242;2023-03-01T00:54:30;14.8;;;9.5;;
32451;SDS011;45528;52.102;5.242;2023-03-01T00:56:08;15.0;;;10.4;;
32451;SDS011;45528;52.102;5.242;2023-03-01T00:57:45;14.4;;;10.3;;
32451;SDS011;45528;52.102;5.242;2023-03-01T00:59:21;15.1;;;10.6;;
32451;SDS011;45528;52.102;5.242;2023-03-01T01:02:34;14.3;;;10.4;;
32451;SDS011;45528;52.102;5.242;2023-03-01T01:04:11;14.7;;;10.6;;
32451;SDS011;45528;52.102;5.242;2023-03-01T01:05:49;15.1;;;10.21;;
32451;SDS011;45528;52.102;5.242;2023-03-01T01:09:02;18.2;;;11.2;;
32451;SDS011;45528;52.102;5.242;2023-03-01T01:10:42;15.7;;;11.1;;
32451;SDS011;45528;52.102;5.242;2023-03-01T01:12:20;16.11;;;11.7;;
32451;SDS011;45528;52.102;5.242;2023-03-01T01:13:56;17.5;;;11.5;;
32451;SDS011;45528;52.102;5.242;2023-03-01T01:17:10;16.0;;;11.3;;
32451;SDS011;45528;52.102;5.242;2023-03-01T01:18:46;16.3;;;11.1;;
32451;SDS011;45528;52.102;5.242;2023-03-01T01:20:22;15.4;;;11.3;;
32451;SDS011;45528;52.102;5.242;2023-03-01T01:23:35;14.4;;;10.6;;
32451;SDS011;45528;52.102;5.242;2023-03-01T01:25:11;15.5;;;11.1;;
32451;SDS011;45528;52.102;5.242;2023-03-01T01:26:48;15.7;;;11.3;;
32451;SDS011;45528;52.102;5.242;2023-03-01T01:30:01;17.2;;;11.3;;
32451;SDS011;45528;52.102;5.242;2023-03-01T01:31:39;16.61;;;11.1;;
32451;SDS011;45528;52.102;5.242;2023-03-01T01:33:17;16.11;;;11.0;;
32451;SDS011;45528;52.102;5.242;2023-03-01T01:34:53;17.61;;;11.7;;
32451;SDS011;45528;52.102;5.242;2023-03-01T01:38:09;17.8;;;12.2;;
32451;SDS011;45528;52.102;5.242;2023-03-01T01:39:45;19.0;;;12.8;;
32451;SDS011;45528;52.102;5.242;2023-03-01T01:41:21;14.5;;;11.0;;
32451;SDS011;45528;52.102;5.242;2023-03-01T01:44:35;17.3;;;11.9;;
32451;SDS011;45528;52.102;5.242;2023-03-01T01:46:15;17.5;;;11.4;;
32451;SDS011;45528;52.102;5.242;2023-03-01T01:47:57;14.9;;;11.2;;
32451;SDS011;45528;52.102;5.242;2023-03-01T01:49:40;20.7;;;12.4;;
32451;SDS011;45528;52.102;5.242;2023-03-01T01:53:01;17.61;;;11.9;;
32451;SDS011;45528;52.102;5.242;2023-03-01T01:54:39;15.8;;;11.1;;
32451;SDS011;45528;52.102;5.242;2023-03-01T01:56:21;17.2;;;11.8;;
32451;SDS011;45528;52.102;5.242;2023-03-01T01:58:02;21.0;;;12.6;;
32451;SDS011;45528;52.102;5.242;2023-03-01T02:01:25;15.8;;;12.0;;
32451;SDS011;45528;52.102;5.242;2023-03-01T02:03:03;18.0;;;11.8;;
32451;SDS011;45528;52.102;5.242;2023-03-01T02:04:44;18.5;;;12.1;;
32451;SDS011;45528;52.102;5.242;2023-03-01T02:06:24;17.41;;;12.0;;
32451;SDS011;45528;52.102;5.242;2023-03-01T02:09:45;17.3;;;12.7;;
32451;SDS011;45528;52.102;5.242;2023-03-01T02:11:24;20.0;;;11.9;;
32451;SDS011;45528;52.102;5.242;2023-03-01T02:13:02;14.7;;;11.6;;
32451;SDS011;45528;52.102;5.242;2023-03-01T02:14:40;19.11;;;12.8;;
32451;SDS011;45528;52.102;5.242;2023-03-01T02:17:53;16.7;;;12.1;;
32451;SDS011;45528;52.102;5.242;2023-03-01T02:19:35;17.8;;;12.1;;
32451;SDS011;45528;52.102;5.242;2023-03-01T02:21:37;17.41;;;11.9;;
32451;SDS011;45528;52.102;5.242;2023-03-01T02:23:24;19.2;;;12.6;;
32451;SDS011;45528;52.102;5.242;2023-03-01T02:26:51;18.7;;;13.3;;
32451;SDS011;45528;52.102;5.242;2023-03-01T02:28:31;18.11;;;13.1;;
32451;SDS011;45528;52.102;5.242;2023-03-01T02:30:10;18.91;;;13.3;;
32451;SDS011;45528;52.102;5.242;2023-03-01T02:31:46;18.7;;;13.0;;
32451;SDS011;45528;52.102;5.242;2023-03-01T02:33:23;20.6;;;13.6;;
32451;SDS011;45528;52.102;5.242;2023-03-01T02:36:38;21.9;;;13.1;;
32451;SDS011;45528;52.102;5.242;2023-03-01T02:38:18;17.91;;;12.4;;
32451;SDS011;45528;52.102;5.242;2023-03-01T02:39:56;17.41;;;12.7;;
32451;SDS011;45528;52.102;5.242;2023-03-01T02:43:17;17.41;;;12.7;;
32451;SDS011;45528;52.102;5.242;2023-03-01T02:44:57;21.9;;;14.5;;
32451;SDS011;45528;52.102;5.242;2023-03-01T02:46:34;19.2;;;13.7;;
32451;SDS011;45528;52.102;5.242;2023-03-01T02:48:18;21.1;;;14.4;;
32451;SDS011;45528;52.102;5.242;2023-03-01T02:51:38;18.8;;;13.9;;
32451;SDS011;45528;52.102;5.242;2023-03-01T02:53:25;18.3;;;13.8;;
32451;SDS011;45528;52.102;5.242;2023-03-01T02:55:11;17.41;;;13.2;;
32451;SDS011;45528;52.102;5.242;2023-03-01T02:56:49;23.2;;;14.2;;
32451;SDS011;45528;52.102;5.242;2023-03-01T03:00:04;21.2;;;14.1;;
32451;SDS011;45528;52.102;5.242;2023-03-01T03:01:44;20.0;;;13.6;;
32451;SDS011;45528;52.102;5.242;2023-03-01T03:03:20;19.7;;;13.4;;
32451;SDS011;45528;52.102;5.242;2023-03-01T03:04:57;19.5;;;13.2;;
32451;SDS011;45528;52.102;5.242;2023-03-01T03:08:09;19.5;;;13.5;;
32451;SDS011;45528;52.102;5.242;2023-03-01T03:09:46;20.0;;;14.2;;
32451;SDS011;45528;52.102;5.242;2023-03-01T03:11:22;21.1;;;14.6;;
32451;SDS011;45528;52.102;5.242;2023-03-01T03:14:37;19.8;;;14.0;;
32451;SDS011;45528;52.102;5.242;2023-03-01T03:16:13;19.7;;;13.9;;
32451;SDS011;45528;52.102;5.242;2023-03-01T03:17:50;20.6;;;15.8;;
32451;SDS011;45528;52.102;5.242;2023-03-01T03:19:28;21.8;;;15.5;;
32451;SDS011;45528;52.102;5.242;2023-03-01T03:22:43;21.2;;;15.8;;
32451;SDS011;45528;52.102;5.242;2023-03-01T03:24:19;22.3;;;15.2;;
32451;SDS011;45528;52.102;5.242;2023-03-01T03:25:55;22.4;;;16.11;;
32451;SDS011;45528;52.102;5.242;2023-03-01T03:29:08;21.5;;;15.9;;
32451;SDS011;45528;52.102;5.242;2023-03-01T03:30:44;20.41;;;15.8;;
32451;SDS011;45528;52.102;5.242;2023-03-01T03:32:20;21.6;;;15.5;;
32451;SDS011;45528;52.102;5.242;2023-03-01T03:35:33;20.3;;;16.0;;
32451;SDS011;45528;52.102;5.242;2023-03-01T03:37:15;20.3;;;15.6;;
32451;SDS011;45528;52.102;5.242;2023-03-01T03:38:51;22.9;;;16.5;;
32451;SDS011;45528;52.102;5.242;2023-03-01T03:40:29;21.7;;;15.5;;
32451;SDS011;45528;52.102;5.242;2023-03-01T03:43:44;23.2;;;16.2;;
32451;SDS011;45528;52.102;5.242;2023-03-01T03:45:20;22.5;;;16.8;;
32451;SDS011;45528;52.102;5.242;2023-03-01T03:46:56;21.6;;;16.11;;
32451;SDS011;45528;52.102;5.242;2023-03-01T03:50:10;21.9;;;16.0;;
32451;SDS011;45528;52.102;5.242;2023-03-01T03:51:47;23.3;;;17.0;;
32451;SDS011;45528;52.102;5.242;2023-03-01T03:53:25;23.6;;;18.0;;
32451;SDS011;45528;52.102;5.242;2023-03-01T03:55:03;22.1;;;16.8;;
32451;SDS011;45528;52.102;5.242;2023-03-01T03:58:16;21.8;;;16.9;;
32451;SDS011;45528;52.102;5.242;2023-03-01T03:59:54;26.6;;;18.0;;
32451;SDS011;45528;52.102;5.242;2023-03-01T04:01:30;23.9;;;17.11;;
32451;SDS011;45528;52.102;5.242;2023-03-01T04:04:45;22.8;;;17.8;;
32451;SDS011;45528;52.102;5.242;2023-03-01T04:06:21;26.7;;;19.0;;
32451;SDS011;45528;52.102;5.242;2023-03-01T04:07:58;23.0;;;17.11;;
32451;SDS011;45528;52.102;5.242;2023-03-01T04:11:11;26.0;;;19.41;;
32451;SDS011;45528;52.102;5.242;2023-03-01T04:12:48;27.7;;;19.5;;
32451;SDS011;45528;52.102;5.242;2023-03-01T04:14:24;23.8;;;18.91;;
32451;SDS011;45528;52.102;5.242;2023-03-01T04:16:00;26.9;;;19.0;;
32451;SDS011;45528;52.102;5.242;2023-03-01T04:19:13;26.7;;;18.7;;
32451;SDS011;45528;52.102;5.242;2023-03-01T04:20:49;29.3;;;20.7;;
32451;SDS011;45528;52.102;5.242;2023-03-01T04:22:26;29.3;;;21.0;;
32451;SDS011;45528;52.102;5.242;2023-03-01T04:25:40;29.4;;;21.5;;
32451;SDS011;45528;52.102;5.242;2023-03-01T04:27:17;30.4;;;21.5;;
32451;SDS011;45528;52.102;5.242;2023-03-01T04:28:53;31.7;;;21.4;;
32451;SDS011;45528;52.102;5.242;2023-03-01T04:32:06;29.5;;;20.7;;
32451;SDS011;45528;52.102;5.242;2023-03-01T04:33:42;29.1;;;20.11;;
32451;SDS011;45528;52.102;5.242;2023-03-01T04:35:20;28.7;;;20.0;;
32451;SDS011;45528;52.102;5.242;2023-03-01T04:36:56;27.3;;;19.7;;
32451;SDS011;45528;52.102;5.242;2023-03-01T04:40:09;27.9;;;19.8;;
32451;SDS011;45528;52.102;5.242;2023-03-01T04:41:46;28.3;;;20.3;;
32451;SDS011;45528;52.102;5.242;2023-03-01T04:43:23;31.0;;;22.0;;
32451;SDS011;45528;52.102;5.242;2023-03-01T04:46:35;26.6;;;20.2;;
32451;SDS011;45528;52.102;5.242;2023-03-01T04:48:12;28.2;;;21.1;;
32451;SDS011;45528;52.102;5.242;2023-03-01T04:49:49;32.3;;;22.6;;
32451;SDS011;45528;52.102;5.242;2023-03-01T04:53:01;32.8;;;23.1;;
32451;SDS011;45528;52.102;5.242;2023-03-01T04:54:38;34.21;;;24.4;;
32451;SDS011;45528;52.102;5.242;2023-03-01T04:56:15;30.3;;;21.7;;
32451;SDS011;45528;52.102;5.242;2023-03-01T04:57:51;32.1;;;23.1;;
32451;SDS011;45528;52.102;5.242;2023-03-01T05:01:08;32.6;;;23.1;;
32451;SDS011;45528;52.102;5.242;2023-03-01T05:02:47;32.0;;;22.5;;
32451;SDS011;45528;52.102;5.242;2023-03-01T05:04:24;31.2;;;22.2;;
32451;SDS011;45528;52.102;5.242;2023-03-01T05:07:36;30.3;;;22.6;;
32451;SDS011;45528;52.102;5.242;2023-03-01T05:09:12;31.8;;;23.3;;
32451;SDS011;45528;52.102;5.242;2023-03-01T05:10:49;30.6;;;22.4;;
32451;SDS011;45528;52.102;5.242;2023-03-01T05:12:28;34.31;;;25.4;;
32451;SDS011;45528;52.102;5.242;2023-03-01T05:15:42;33.8;;;23.9;;
32451;SDS011;45528;52.102;5.242;2023-03-01T05:17:18;30.8;;;23.4;;
32451;SDS011;45528;52.102;5.242;2023-03-01T05:18:54;35.5;;;24.2;;
32451;SDS011;45528;52.102;5.242;2023-03-01T05:22:06;29.3;;;22.2;;
32451;SDS011;45528;52.102;5.242;2023-03-01T05:23:43;34.6;;;24.3;;
32451;SDS011;45528;52.102;5.242;2023-03-01T05:25:20;31.0;;;23.8;;
32451;SDS011;45528;52.102;5.242;2023-03-01T05:28:34;32.6;;;23.9;;
32451;SDS011;45528;52.102;5.242;2023-03-01T05:30:11;36.0;;;23.8;;
32451;SDS011;45528;52.102;5.242;2023-03-01T05:31:48;31.9;;;23.1;;
32451;SDS011;45528;52.102;5.242;2023-03-01T05:33:25;29.7;;;21.0;;
32451;SDS011;45528;52.102;5.242;2023-03-01T05:36:40;27.7;;;19.8;;
32451;SDS011;45528;52.102;5.242;2023-03-01T05:38:16;29.8;;;21.9;;
32451;SDS011;45528;52.102;5.242;2023-03-01T05:39:52;27.0;;;20.3;;
32451;SDS011;45528;52.102;5.242;2023-03-01T05:43:04;27.3;;;20.41;;
32451;SDS011;45528;52.102;5.242;2023-03-01T05:44:41;28.7;;;20.2;;
32451;SDS011;45528;52.102;5.242;2023-03-01T05:46:18;28.2;;;20.0;;
32451;SDS011;45528;52.102;5.242;2023-03-01T05:49:31;30.1;;;20.11;;
32451;SDS011;45528;52.102;5.242;2023-03-01T05:51:07;25.1;;;19.0;;
32451;SDS011;45528;52.102;5.242;2023-03-01T05:52:43;28.1;;;19.61;;
32451;SDS011;45528;52.102;5.242;2023-03-01T05:54:21;26.7;;;19.8;;
32451;SDS011;45528;52.102;5.242;2023-03-01T05:57:35;25.1;;;19.2;;
32451;SDS011;45528;52.102;5.242;2023-03-01T05:59:11;26.3;;;19.2;;
32451;SDS011;45528;52.102;5.242;2023-03-01T06:00:48;27.7;;;19.2;;
32451;SDS011;45528;52.102;5.242;2023-03-01T06:04:00;25.7;;;18.61;;
32451;SDS011;45528;52.102;5.242;2023-03-01T06:05:37;28.0;;;19.5;;
32451;SDS011;45528;52.102;5.242;2023-03-01T06:07:14;27.1;;;18.91;;
32451;SDS011;45528;52.102;5.242;2023-03-01T06:10:28;27.6;;;19.8;;
32451;SDS011;45528;52.102;5.242;2023-03-01T06:12:05;28.5;;;19.8;;
32451;SDS011;45528;52.102;5.242;2023-03-01T06:13:42;26.2;;;18.91;;
32451;SDS011;45528;52.102;5.242;2023-03-01T06:15:19;31.5;;;21.3;;
32451;SDS011;45528;52.102;5.242;2023-03-01T06:18:34;30.8;;;21.5;;
32451;SDS011;45528;52.102;5.242;2023-03-01T06:20:12;27.5;;;20.3;;
32451;SDS011;45528;52.102;5.242;2023-03-01T06:21:50;28.4;;;20.3;;
32451;SDS011;45528;52.102;5.242;2023-03-01T06:25:03;26.0;;;19.5;;
32451;SDS011;45528;52.102;5.242;2023-03-01T06:26:40;25.5;;;17.91;;
32451;SDS011;45528;52.102;5.242;2023-03-01T06:28:16;29.0;;;17.41;;
32451;SDS011;45528;52.102;5.242;2023-03-01T06:29:53;27.6;;;17.5;;
32451;SDS011;45528;52.102;5.242;2023-03-01T06:33:05;29.6;;;18.2;;
32451;SDS011;45528;52.102;5.242;2023-03-01T06:34:41;25.4;;;17.61;;
32451;SDS011;45528;52.102;5.242;2023-03-01T06:36:17;27.5;;;18.8;;
32451;SDS011;45528;52.102;5.242;2023-03-01T06:39:29;29.9;;;19.11;;
32451;SDS011;45528;52.102;5.242;2023-03-01T06:41:06;25.2;;;17.41;;
32451;SDS011;45528;52.102;5.242;2023-03-01T06:42:44;23.8;;;17.11;;
32451;SDS011;45528;52.102;5.242;2023-03-01T06:46:03;27.0;;;18.8;;
32451;SDS011;45528;52.102;5.242;2023-03-01T06:47:40;26.4;;;17.7;;
32451;SDS011;45528;52.102;5.242;2023-03-01T06:49:16;24.4;;;17.2;;
32451;SDS011;45528;52.102;5.242;2023-03-01T06:50:52;26.7;;;18.11;;
32451;SDS011;45528;52.102;5.242;2023-03-01T06:54:07;25.7;;;17.3;;
32451;SDS011;45528;52.102;5.242;2023-03-01T06:55:43;27.8;;;17.61;;
32451;SDS011;45528;52.102;5.242;2023-03-01T06:57:19;26.1;;;17.5;;
32451;SDS011;45528;52.102;5.242;2023-03-01T07:00:31;26.5;;;16.8;;
32451;SDS011;45528;52.102;5.242;2023-03-01T07:02:09;26.9;;;17.91;;
32451;SDS011;45528;52.102;5.242;2023-03-01T07:03:46;26.8;;;17.11;;
32451;SDS011;45528;52.102;5.242;2023-03-01T07:05:23;26.5;;;16.7;;
32451;SDS011;45528;52.102;5.242;2023-03-01T07:08:35;25.4;;;16.4;;
32451;SDS011;45528;52.102;5.242;2023-03-01T07:10:11;28.6;;;17.41;;
32451;SDS011;45528;52.102;5.242;2023-03-01T07:11:48;26.2;;;17.5;;
32451;SDS011;45528;52.102;5.242;2023-03-01T07:15:02;24.9;;;17.0;;
32451;SDS011;45528;52.102;5.242;2023-03-01T07:16:40;27.7;;;17.5;;
32451;SDS011;45528;52.102;5.242;2023-03-01T07:18:16;23.3;;;16.61;;
32451;SDS011;45528;52.102;5.242;2023-03-01T07:21:29;23.6;;;16.8;;
32451;SDS011;45528;52.102;5.242;2023-03-01T07:23:06;25.2;;;17.0;;
32451;SDS011;45528;52.102;5.242;2023-03-01T07:24:42;24.8;;;16.8;;
32451;SDS011;45528;52.102;5.242;2023-03-01T07:26:19;24.3;;;16.61;;
32451;SDS011;45528;52.102;5.242;2023-03-01T07:29:31;27.1;;;17.8;;
32451;SDS011;45528;52.102;5.242;2023-03-01T07:31:07;26.9;;;18.2;;
32451;SDS011;45528;52.102;5.242;2023-03-01T07:32:44;27.2;;;18.11;;
32451;SDS011;45528;52.102;5.242;2023-03-01T07:35:56;27.0;;;18.7;;
32451;SDS011;45528;52.102;5.242;2023-03-01T07:37:33;27.3;;;19.11;;
32451;SDS011;45528;52.102;5.242;2023-03-01T07:39:09;26.6;;;18.91;;
32451;SDS011;45528;52.102;5.242;2023-03-01T07:42:22;25.0;;;17.91;;
32451;SDS011;45528;52.102;5.242;2023-03-01T07:43:58;25.8;;;19.41;;
32451;SDS011;45528;52.102;5.242;2023-03-01T07:45:35;26.6;;;18.8;;
32451;SDS011;45528;52.102;5.242;2023-03-01T07:48:47;26.0;;;18.2;;
32451;SDS011;45528;52.102;5.242;2023-03-01T07:50:23;27.0;;;19.61;;
32451;SDS011;45528;52.102;5.242;2023-03-01T07:51:59;27.5;;;19.61;;
32451;SDS011;45528;52.102;5.242;2023-03-01T07:53:35;27.3;;;19.2;;
32451;SDS011;45528;52.102;5.242;2023-03-01T07:56:50;27.9;;;19.11;;
32451;SDS011;45528;52.102;5.242;2023-03-01T07:58:26;27.9;;;19.11;;
32451;SDS011;45528;52.102;5.242;2023-03-01T08:00:03;29.2;;;19.61;;
32451;SDS011;45528;52.102;5.242;2023-03-01T08:03:16;27.2;;;19.8;;
32451;SDS011;45528;52.102;5.242;2023-03-01T08:04:53;29.0;;;19.7;;
32451;SDS011;45528;52.102;5.242;2023-03-01T08:06:29;27.9;;;19.41;;
32451;SDS011;45528;52.102;5.242;2023-03-01T08:09:41;27.9;;;19.0;;
32451;SDS011;45528;52.102;5.242;2023-03-01T08:11:17;26.1;;;17.91;;
32451;SDS011;45528;52.102;5.242;2023-03-01T08:12:54;22.9;;;17.61;;
32451;SDS011;45528;52.102;5.242;2023-03-01T08:14:30;25.7;;;19.0;;
32451;SDS011;45528;52.102;5.242;2023-03-01T08:17:45;26.6;;;18.5;;
32451;SDS011;45528;52.102;5.242;2023-03-01T08:19:25;23.8;;;17.11;;
32451;SDS011;45528;52.102;5.242;2023-03-01T08:21:02;24.3;;;16.8;;
32451;SDS011;45528;52.102;5.242;2023-03-01T08:24:16;23.9;;;17.0;;
32451;SDS011;45528;52.102;5.242;2023-03-01T08:25:52;21.8;;;17.0;;
32451;SDS011;45528;52.102;5.242;2023-03-01T08:27:28;22.8;;;16.5;;
32451;SDS011;45528;52.102;5.242;2023-03-01T08:29:04;22.5;;;16.7;;
32451;SDS011;45528;52.102;5.242;2023-03-01T08:32:17;20.0;;;14.9;;
32451;SDS011;45528;52.102;5.242;2023-03-01T08:33:55;21.2;;;15.4;;
32451;SDS011;45528;52.102;5.242;2023-03-01T08:35:33;21.3;;;14.6;;
32451;SDS011;45528;52.102;5.242;2023-03-01T08:38:45;22.9;;;14.6;;
32451;SDS011;45528;52.102;5.242;2023-03-01T08:40:21;21.1;;;14.2;;
32451;SDS011;45528;52.102;5.242;2023-03-01T08:41:58;21.6;;;14.9;;
32451;SDS011;45528;52.102;5.242;2023-03-01T08:45:10;20.5;;;14.8;;
32451;SDS011;45528;52.102;5.242;2023-03-01T08:46:47;21.1;;;14.0;;
32451;SDS011;45528;52.102;5.242;2023-03-01T08:48:23;21.3;;;13.4;;
32451;SDS011;45528;52.102;5.242;2023-03-01T08:50:00;18.8;;;12.4;;
32451;SDS011;45528;52.102;5.242;2023-03-01T08:53:15;17.5;;;12.4;;
32451;SDS011;45528;52.102;5.242;2023-03-01T08:54:51;19.11;;;11.6;;
32451;SDS011;45528;52.102;5.242;2023-03-01T08:56:27;17.7;;;11.3;;
32451;SDS011;45528;52.102;5.242;2023-03-01T08:59:39;15.9;;;10.8;;
32451;SDS011;45528;52.102;5.242;2023-03-01T09:01:16;14.0;;;9.9;;
32451;SDS011;45528;52.102;5.242;2023-03-01T09:02:55;13.5;;;8.6;;
32451;SDS011;45528;52.102;5.242;2023-03-01T09:06:07;14.1;;;8.4;;
32451;SDS011;45528;52.102;5.242;2023-03-01T09:07:44;14.9;;;9.21;;
32451;SDS011;45528;52.102;5.242;2023-03-01T09:09:20;13.7;;;8.71;;
32451;SDS011;45528;52.102;5.242;2023-03-01T09:10:56;13.4;;;8.71;;
32451;SDS011;45528;52.102;5.242;2023-03-01T09:14:09;12.4;;;8.31;;
32451;SDS011;45528;52.102;5.242;2023-03-01T09:15:45;12.0;;;8.0;;
32451;SDS011;45528;52.102;5.242;2023-03-01T09:17:21;14.4;;;7.7;;
32451;SDS011;45528;52.102;5.242;2023-03-01T09:20:33;10.9;;;7.0;;
32451;SDS011;45528;52.102;5.242;2023-03-01T09:22:09;10.8;;;7.2;;
32451;SDS011;45528;52.102;5.242;2023-03-01T09:23:46;11.2;;;6.5;;
32451;SDS011;45528;52.102;5.242;2023-03-01T09:27:00;9.6;;;5.8;;
32451;SDS011;45528;52.102;5.242;2023-03-01T09:28:36;10.1;;;5.7;;
32451;SDS011;45528;52.102;5.242;2023-03-01T09:30:13;8.9;;;5.8;;
32451;SDS011;45528;52.102;5.242;2023-03-01T09:33:26;7.5;;;5.4;;
32451;SDS011;45528;52.102;5.242;2023-03-01T09:35:03;8.4;;;5.5;;
32451;SDS011;45528;52.102;5.242;2023-03-01T09:36:40;8.81;;;4.41;;
32451;SDS011;45528;52.102;5.242;2023-03-01T09:38:16;9.5;;;4.8;;
32451;SDS011;45528;52.102;5.242;2023-03-01T09:41:33;7.6;;;4.61;;
32451;SDS011;45528;52.102;5.242;2023-03-01T09:43:34;6.1;;;4.1;;
32451;SDS011;45528;52.102;5.242;2023-03-01T09:45:26;6.4;;;4.0;;
32451;SDS011;45528;52.102;5.242;2023-03-01T09:47:09;6.0;;;3.7;;
32451;SDS011;45528;52.102;5.242;2023-03-01T09:48:55;7.6;;;3.8;;
32451;SDS011;45528;52.102;5.242;2023-03-01T09:52:19;6.2;;;3.6;;
32451;SDS011;45528;52.102;5.242;2023-03-01T09:54:05;5.3;;;3.1;;
32451;SDS011;45528;52.102;5.242;2023-03-01T09:55:42;8.4;;;4.1;;
32451;SDS011;45528;52.102;5.242;2023-03-01T09:57:26;8.5;;;4.2;;
32451;SDS011;45528;52.102;5.242;2023-03-01T09:59:09;5.5;;;3.9;;
32451;SDS011;45528;52.102;5.242;2023-03-01T10:02:46;7.5;;;3.8;;
32451;SDS011;45528;52.102;5.242;2023-03-01T10:04:28;6.7;;;3.6;;
32451;SDS011;45528;52.102;5.242;2023-03-01T10:06:19;7.6;;;3.7;;
32451;SDS011;45528;52.102;5.242;2023-03-01T10:08:00;8.1;;;3.9;;
32451;SDS011;45528;52.102;5.242;2023-03-01T10:10:01;6.2;;;3.1;;
32451;SDS011;45528;52.102;5.242;2023-03-01T10:11:41;7.0;;;3.6;;
32451;SDS011;45528;52.102;5.242;2023-03-01T10:15:05;7.3;;;3.7;;
32451;SDS011;45528;52.102;5.242;2023-03-01T10:16:48;7.2;;;3.7;;
32451;SDS011;45528;52.102;5.242;2023-03-01T10:18:29;6.5;;;3.7;;
32451;SDS011;45528;52.102;5.242;2023-03-01T10:20:14;5.6;;;3.8;;
32451;SDS011;45528;52.102;5.242;2023-03-01T10:23:45;8.4;;;4.1;;
32451;SDS011;45528;52.102;5.242;2023-03-01T10:25:31;7.9;;;4.1;;
32451;SDS011;45528;52.102;5.242;2023-03-01T10:27:22;7.4;;;4.0;;
32451;SDS011;45528;52.102;5.242;2023-03-01T10:29:01;6.6;;;3.8;;
32451;SDS011;45528;52.102;5.242;2023-03-01T10:30:40;6.6;;;4.0;;
32451;SDS011;45528;52.102;5.242;2023-03-01T10:33:54;8.31;;;4.2;;
32451;SDS011;45528;52.102;5.242;2023-03-01T10:35:31;9.81;;;4.2;;
32451;SDS011;45528;52.102;5.242;2023-03-01T10:37:11;7.2;;;4.0;;
32451;SDS011;45528;52.102;5.242;2023-03-01T10:38:49;5.7;;;3.8;;
32451;SDS011;45528;52.102;5.242;2023-03-01T10:42:04;6.6;;;3.7;;
32451;SDS011;45528;52.102;5.242;2023-03-01T10:43:54;6.1;;;3.3;;
32451;SDS011;45528;52.102;5.242;2023-03-01T10:45:33;9.0;;;3.8;;
32451;SDS011;45528;52.102;5.242;2023-03-01T10:47:13;6.7;;;3.2;;
32451;SDS011;45528;52.102;5.242;2023-03-01T10:51:05;6.1;;;3.3;;
32451;SDS011;45528;52.102;5.242;2023-03-01T10:52:42;7.3;;;3.1;;
32451;SDS011;45528;52.102;5.242;2023-03-01T10:54:33;6.3;;;3.4;;
32451;SDS011;45528;52.102;5.242;2023-03-01T10:56:10;6.1;;;3.3;;
32451;SDS011;45528;52.102;5.242;2023-03-01T10:57:48;6.7;;;3.0;;
32451;SDS011;45528;52.102;5.242;2023-03-01T11:01:09;5.9;;;3.0;;
32451;SDS011;45528;52.102;5.242;2023-03-01T11:03:08;5.6;;;3.3;;
32451;SDS011;45528;52.102;5.242;2023-03-01T11:04:56;5.6;;;3.2;;
32451;SDS011;45528;52.102;5.242;2023-03-01T11:06:58;5.6;;;3.2;;
32451;SDS011;45528;52.102;5.242;2023-03-01T11:08:37;4.91;;;3.0;;
32451;SDS011;45528;52.102;5.242;2023-03-01T11:10:17;5.9;;;3.5;;
32451;SDS011;45528;52.102;5.242;2023-03-01T11:13:36;7.1;;;3.5;;
32451;SDS011;45528;52.102;5.242;2023-03-01T11:15:25;4.61;;;3.2;;
32451;SDS011;45528;52.102;5.242;2023-03-01T11:17:04;4.61;;;3.1;;
32451;SDS011;45528;52.102;5.242;2023-03-01T11:18:55;4.61;;;3.1;;
32451;SDS011;45528;52.102;5.242;2023-03-01T11:22:12;5.6;;;3.3;;
32451;SDS011;45528;52.102;5.242;2023-03-01T11:23:53;5.7;;;3.7;;
32451;SDS011;45528;52.102;5.242;2023-03-01T11:25:30;6.5;;;3.0;;
32451;SDS011;45528;52.102;5.242;2023-03-01T11:27:19;7.3;;;4.1;;
32451;SDS011;45528;52.102;5.242;2023-03-01T11:30:43;6.0;;;3.3;;
32451;SDS011;45528;52.102;5.242;2023-03-01T11:32:28;5.5;;;3.2;;
32451;SDS011;45528;52.102;5.242;2023-03-01T11:34:23;5.3;;;3.1;;
32451;SDS011;45528;52.102;5.242;2023-03-01T11:36:26;5.8;;;3.2;;
32451;SDS011;45528;52.102;5.242;2023-03-01T11:38:12;4.5;;;3.1;;
32451;SDS011;45528;52.102;5.242;2023-03-01T11:39:58;5.0;;;2.7;;
32451;SDS011;45528;52.102;5.242;2023-03-01T11:41:42;4.1;;;2.21;;
32451;SDS011;45528;52.102;5.242;2023-03-01T11:45:10;5.2;;;2.6;;
32451;SDS011;45528;52.102;5.242;2023-03-01T11:46:51;4.3;;;2.4;;
32451;SDS011;45528;52.102;5.242;2023-03-01T11:49:17;3.9;;;2.5;;
32451;SDS011;45528;52.102;5.242;2023-03-01T11:52:17;5.7;;;2.6;;
32451;SDS011;45528;52.102;5.242;2023-03-01T11:56:03;3.4;;;2.21;;
32451;SDS011;45528;52.102;5.242;2023-03-01T11:57:59;3.8;;;2.6;;
32451;SDS011;45528;52.102;5.242;2023-03-01T12:00:00;6.2;;;2.8;;
32451;SDS011;45528;52.102;5.242;2023-03-01T12:02:02;4.41;;;3.0;;
32451;SDS011;45528;52.102;5.242;2023-03-01T12:05:03;6.8;;;3.1;;
32451;SDS011;45528;52.102;5.242;2023-03-01T12:07:56;6.9;;;2.8;;
32451;SDS011;45528;52.102;5.242;2023-03-01T12:09:47;3.5;;;2.7;;
32451;SDS011;45528;52.102;5.242;2023-03-01T12:11:39;3.9;;;2.6;;
32451;SDS011;45528;52.102;5.242;2023-03-01T12:13:42;4.61;;;2.7;;
32451;SDS011;45528;52.102;5.242;2023-03-01T12:15:43;5.8;;;2.7;;
32451;SDS011;45528;52.102;5.242;2023-03-01T12:17:53;6.1;;;2.8;;
32451;SDS011;45528;52.102;5.242;2023-03-01T12:19:54;5.0;;;2.7;;
32451;SDS011;45528;52.102;5.242;2023-03-01T12:21:53;4.5;;;2.6;;
32451;SDS011;45528;52.102;5.242;2023-03-01T12:24:04;5.2;;;2.9;;
32451;SDS011;45528;52.102;5.242;2023-03-01T12:26:57;5.2;;;2.8;;
32451;SDS011;45528;52.102;5.242;2023-03-01T12:28:54;5.11;;;2.7;;
32451;SDS011;45528;52.102;5.242;2023-03-01T12:31:03;4.2;;;2.6;;
32451;SDS011;45528;52.102;5.242;2023-03-01T12:33:49;4.5;;;2.7;;
32451;SDS011;45528;52.102;5.242;2023-03-01T12:35:36;6.4;;;3.1;;
32451;SDS011;45528;52.102;5.242;2023-03-01T12:37:29;5.11;;;2.8;;
32451;SDS011;45528;52.102;5.242;2023-03-01T12:39:24;4.91;;;3.0;;
32451;SDS011;45528;52.102;5.242;2023-03-01T12:41:21;4.0;;;2.9;;
32451;SDS011;45528;52.102;5.242;2023-03-01T12:43:48;4.91;;;3.2;;
32451;SDS011;45528;52.102;5.242;2023-03-01T12:45:43;4.3;;;3.0;;